createdAt,value
2018-07-15T00:01:46.969Z,7.40
2018-07-15T00:04:16.314Z,7.87
2018-07-15T00:06:46.145Z,7.50
2018-07-15T00:09:15.827Z,7.27
2018-07-15T00:11:45.195Z,7.40
2018-07-15T00:14:15.409Z,7.57
2018-07-15T00:16:44.770Z,7.10
2018-07-15T00:19:14.456Z,7.63
2018-07-15T00:21:44.253Z,7.43
2018-07-15T00:24:13.978Z,8.20
2018-07-15T00:26:45.607Z,7.83
2018-07-15T00:29:14.940Z,7.70
2018-07-15T00:31:44.615Z,6.70
2018-07-15T00:34:15.165Z,7.73
2018-07-15T00:36:44.823Z,7.90
2018-07-15T00:39:14.508Z,7.70
2018-07-15T00:41:43.889Z,7.47
2018-07-15T00:44:14.588Z,7.17
2018-07-15T00:46:43.906Z,7.33
2018-07-15T00:49:13.821Z,7.73
2018-07-15T00:51:44.067Z,8.30
2018-07-15T00:54:13.685Z,7.30
2018-07-15T00:56:43.542Z,7.77
2018-07-15T00:59:13.160Z,8.23
2018-07-15T01:01:42.480Z,8.37
2018-07-15T01:04:12.123Z,7.97
2018-07-15T01:06:41.776Z,7.70
2018-07-15T01:09:12.356Z,7.53
2018-07-15T01:11:42.156Z,7.60
2018-07-15T01:14:12.477Z,8.10
2018-07-15T01:16:42.693Z,7.50
2018-07-15T01:19:12.065Z,7.53
2018-07-15T01:21:42.433Z,8.30
2018-07-15T01:24:12.006Z,7.87
2018-07-15T01:26:42.130Z,8.07
2018-07-15T01:29:12.981Z,8.00
2018-07-15T01:31:42.340Z,7.47
2018-07-15T01:34:11.920Z,7.73
2018-07-15T01:36:41.244Z,7.30
2018-07-15T01:39:11.111Z,7.70
2018-07-15T01:41:40.937Z,8.20
2018-07-15T01:44:10.274Z,8.27
2018-07-15T01:46:39.624Z,7.90
2018-07-15T01:49:08.955Z,8.13
2018-07-15T01:51:38.281Z,8.20
2018-07-15T01:54:07.638Z,7.53
2018-07-15T01:56:37.053Z,8.03
2018-07-15T01:59:06.675Z,8.40
2018-07-15T02:01:35.972Z,7.93
2018-07-15T02:04:06.308Z,8.40
2018-07-15T02:06:36.089Z,8.47
2018-07-15T02:09:05.746Z,8.00
2018-07-15T02:11:35.089Z,8.63
2018-07-15T02:14:04.449Z,8.53
2018-07-15T02:16:33.860Z,7.97
2018-07-15T02:19:03.240Z,8.47
2018-07-15T02:21:32.896Z,7.67
2018-07-15T02:24:03.749Z,7.73
2018-07-15T02:26:33.427Z,8.13
2018-07-15T02:29:02.935Z,8.67
2018-07-15T02:31:32.251Z,7.83
2018-07-15T02:34:01.620Z,7.97
2018-07-15T02:36:31.018Z,8.30
2018-07-15T02:39:00.795Z,8.17
2018-07-15T02:41:31.115Z,8.43
2018-07-15T02:44:00.687Z,8.20
2018-07-15T02:46:30.412Z,8.50
2018-07-15T02:48:59.724Z,8.43
2018-07-15T02:51:30.595Z,8.80
2018-07-15T02:54:00.238Z,8.90
2018-07-15T02:56:29.793Z,9.10
2018-07-15T02:59:00.313Z,8.80
2018-07-15T03:01:30.153Z,9.17
2018-07-15T03:03:59.497Z,9.07
2018-07-15T03:06:29.394Z,7.87
2018-07-15T03:08:59.092Z,9.03
2018-07-15T03:11:28.645Z,8.93
2018-07-15T03:13:59.095Z,9.10
2018-07-15T03:16:28.671Z,9.30
2018-07-15T03:18:58.553Z,8.83
2018-07-15T03:21:27.888Z,9.17
2018-07-15T03:23:57.712Z,8.43
2018-07-15T03:26:27.909Z,9.10
2018-07-15T03:28:57.600Z,9.23
2018-07-15T03:31:28.450Z,8.27
2018-07-15T03:33:58.111Z,8.80
2018-07-15T03:36:27.395Z,9.07
2018-07-15T03:38:57.761Z,9.03
2018-07-15T03:41:27.718Z,9.37
2018-07-15T03:43:58.167Z,9.37
2018-07-15T03:46:27.479Z,9.13
2018-07-15T03:48:56.833Z,9.10
2018-07-15T03:51:26.167Z,9.37
2018-07-15T03:53:55.527Z,8.90
2018-07-15T03:56:25.436Z,9.10
2018-07-15T03:58:55.011Z,9.13
2018-07-15T04:01:24.920Z,9.37
2018-07-15T04:03:54.637Z,8.57
2018-07-15T04:06:24.990Z,8.37
2018-07-15T04:08:54.713Z,8.97
2018-07-15T04:11:25.094Z,8.70
2018-07-15T04:13:54.433Z,8.73
2018-07-15T04:16:24.565Z,8.47
2018-07-15T04:18:53.889Z,7.97
2018-07-15T04:21:23.202Z,8.60
2018-07-15T04:23:53.637Z,8.73
2018-07-15T04:26:23.277Z,8.60
2018-07-15T04:28:53.357Z,8.30
2018-07-15T04:31:23.064Z,8.67
2018-07-15T04:33:52.653Z,8.17
2018-07-15T04:36:21.979Z,8.40
2018-07-15T04:38:51.300Z,8.43
2018-07-15T04:41:21.196Z,7.90
2018-07-15T04:43:50.794Z,8.20
2018-07-15T04:46:20.531Z,8.40
2018-07-15T04:48:49.842Z,8.17
2018-07-15T04:51:19.170Z,8.37
2018-07-15T04:53:49.060Z,8.17
2018-07-15T04:56:18.695Z,8.17
2018-07-15T04:58:48.248Z,8.07
2018-07-15T05:01:17.589Z,7.80
2018-07-15T05:03:46.931Z,7.67
2018-07-15T05:06:16.717Z,8.20
2018-07-15T05:08:46.071Z,7.20
2018-07-15T05:11:15.595Z,6.70
2018-07-15T05:13:44.864Z,6.63
2018-07-15T05:16:17.243Z,7.20
2018-07-15T05:18:46.607Z,6.60
2018-07-15T05:21:16.170Z,7.37
2018-07-15T05:23:46.549Z,6.90
2018-07-15T05:26:16.263Z,7.63
2018-07-15T05:28:45.916Z,6.77
2018-07-15T05:31:15.818Z,6.67
2018-07-15T05:33:45.128Z,7.30
2018-07-15T05:36:14.491Z,7.50
2018-07-15T05:38:44.180Z,6.90
2018-07-15T05:41:13.480Z,6.60
2018-07-15T05:43:43.438Z,6.40
2018-07-15T05:46:12.778Z,6.63
2018-07-15T05:48:42.448Z,6.47
2018-07-15T05:51:12.145Z,6.20
2018-07-15T05:53:41.832Z,6.63
2018-07-15T05:56:11.154Z,6.40
2018-07-15T05:58:41.343Z,6.60
2018-07-15T06:01:10.934Z,5.77
2018-07-15T06:03:40.891Z,5.90
2018-07-15T06:06:10.597Z,6.43
2018-07-15T06:08:40.001Z,6.10
2018-07-15T06:11:09.348Z,6.33
2018-07-15T06:13:38.673Z,6.20
2018-07-15T06:16:09.426Z,5.80
2018-07-15T06:18:39.349Z,6.13
2018-07-15T06:21:09.921Z,6.80
2018-07-15T06:23:39.236Z,5.73
2018-07-15T06:26:09.180Z,6.43
2018-07-15T06:28:38.497Z,6.10
2018-07-15T06:31:08.226Z,6.17
2018-07-15T06:33:37.795Z,6.93
2018-07-15T06:36:07.447Z,6.77
2018-07-15T06:38:36.866Z,7.13
2018-07-15T06:41:06.330Z,6.77
2018-07-15T06:43:35.629Z,6.87
2018-07-15T06:46:05.455Z,7.53
2018-07-15T06:48:35.025Z,7.17
2018-07-15T06:51:04.360Z,7.57
2018-07-15T06:53:33.981Z,6.90
2018-07-15T06:56:04.336Z,6.93
2018-07-15T06:58:33.575Z,6.97
2018-07-15T07:01:02.876Z,7.20
2018-07-15T07:03:33.314Z,7.73
2018-07-15T07:06:03.786Z,7.00
2018-07-15T07:08:33.157Z,7.17
2018-07-15T07:11:03.252Z,7.03
2018-07-15T07:13:33.628Z,7.17
2018-07-15T07:16:03.726Z,6.90
2018-07-15T07:18:34.116Z,7.17
2018-07-15T07:21:03.460Z,6.70
2018-07-15T07:23:32.794Z,7.03
2018-07-15T07:26:02.138Z,7.30
2018-07-15T07:28:31.924Z,6.83
2018-07-15T07:31:01.286Z,6.83
2018-07-15T07:33:30.621Z,6.87
2018-07-15T07:35:59.924Z,6.47
2018-07-15T07:38:29.965Z,6.93
2018-07-15T07:40:59.849Z,6.90
2018-07-15T07:43:29.159Z,6.37
2018-07-15T07:45:59.341Z,6.47
2018-07-15T07:48:28.672Z,6.73
2018-07-15T07:50:58.011Z,7.23
2018-07-15T07:53:27.365Z,6.30
2018-07-15T07:55:56.758Z,6.83
2018-07-15T07:58:27.043Z,6.93
2018-07-15T08:00:56.688Z,6.70
2018-07-15T08:03:26.022Z,6.80
2018-07-15T08:05:55.380Z,7.00
2018-07-15T08:08:25.242Z,6.30
2018-07-15T08:10:54.802Z,6.20
2018-07-15T08:13:24.202Z,6.63
2018-07-15T08:15:53.616Z,6.00
2018-07-15T08:18:22.937Z,6.20
2018-07-15T08:20:52.567Z,6.27
2018-07-15T08:23:21.886Z,5.90
2018-07-15T08:25:51.224Z,5.60
2018-07-15T08:28:20.608Z,5.93
2018-07-15T08:31:00.960Z,5.73
2018-07-15T08:33:30.307Z,6.20
2018-07-15T08:35:59.959Z,5.40
2018-07-15T08:38:29.751Z,5.50
2018-07-15T08:41:00.105Z,4.67
2018-07-15T08:43:30.198Z,5.10
2018-07-15T08:46:01.068Z,4.90
2018-07-15T08:48:30.317Z,5.10
2018-07-15T08:50:59.700Z,4.57
2018-07-15T08:53:29.028Z,5.17
2018-07-15T08:55:59.416Z,5.03
2018-07-15T08:58:29.486Z,5.10
2018-07-15T09:00:58.846Z,4.40
2018-07-15T09:03:28.591Z,4.57
2018-07-15T09:05:57.947Z,4.60
2018-07-15T09:08:28.564Z,4.53
2018-07-15T09:10:58.190Z,4.57
2018-07-15T09:13:27.732Z,4.60
2018-07-15T09:15:57.101Z,4.77
2018-07-15T09:18:27.219Z,4.80
2018-07-15T09:20:56.783Z,4.27
2018-07-15T09:23:26.223Z,4.50
2018-07-15T09:25:56.607Z,4.17
2018-07-15T09:28:25.905Z,3.87
2018-07-15T09:30:55.971Z,4.30
2018-07-15T09:33:25.304Z,4.17
2018-07-15T09:35:54.857Z,3.73
2018-07-15T09:38:24.388Z,3.60
2018-07-15T09:40:53.720Z,3.83
2018-07-15T09:43:23.021Z,3.83
2018-07-15T09:45:53.189Z,3.30
2018-07-15T09:48:22.520Z,4.20
2018-07-15T09:50:52.223Z,4.00
2018-07-15T09:53:21.547Z,3.30
2018-07-15T09:55:51.127Z,3.93
2018-07-15T09:58:22.046Z,3.23
2018-07-15T10:00:57.165Z,3.23
2018-07-15T10:03:28.224Z,3.50
2018-07-15T10:05:58.443Z,3.23
2018-07-15T10:08:27.777Z,3.07
2018-07-15T10:10:57.083Z,3.47
2018-07-15T10:13:26.465Z,3.10
2018-07-15T10:15:57.083Z,2.60
2018-07-15T10:18:26.762Z,3.30
2018-07-15T10:20:56.337Z,3.50
2018-07-15T10:23:25.926Z,3.63
2018-07-15T10:25:56.684Z,3.57
2018-07-15T10:28:25.992Z,3.40
2018-07-15T10:30:55.321Z,3.23
2018-07-15T10:33:25.412Z,3.30
2018-07-15T10:35:54.972Z,3.23
2018-07-15T10:38:24.973Z,3.50
2018-07-15T10:40:54.958Z,3.07
2018-07-15T10:43:24.286Z,3.00
2018-07-15T10:45:55.074Z,3.00
2018-07-15T10:48:24.834Z,2.70
2018-07-15T10:50:54.151Z,3.17
2018-07-15T10:53:23.493Z,2.80
2018-07-15T10:55:54.967Z,2.90
2018-07-15T10:58:24.584Z,2.63
2018-07-15T11:00:54.014Z,2.93
2018-07-15T11:03:23.336Z,2.90
2018-07-15T11:05:54.396Z,2.63
2018-07-15T11:08:23.989Z,2.50
2018-07-15T11:10:53.330Z,2.37
2018-07-15T11:13:23.978Z,2.53
2018-07-15T11:15:53.373Z,2.47
2018-07-15T11:18:22.796Z,2.70
2018-07-15T11:20:52.341Z,2.60
2018-07-15T11:23:21.717Z,3.43
2018-07-15T11:25:52.377Z,2.90
2018-07-15T11:28:21.736Z,2.30
2018-07-15T11:30:51.325Z,2.47
2018-07-15T11:33:20.725Z,2.50
2018-07-15T11:35:50.408Z,2.30
2018-07-15T11:38:20.795Z,2.70
2018-07-15T11:40:50.436Z,2.67
2018-07-15T11:43:20.313Z,2.80
2018-07-15T11:45:49.669Z,2.43
2018-07-15T11:48:19.663Z,2.67
2018-07-15T11:50:49.107Z,2.80
2018-07-15T11:53:18.699Z,2.43
2018-07-15T11:55:48.700Z,2.30
2018-07-15T11:58:18.089Z,2.40
2018-07-15T12:00:47.658Z,2.03
2018-07-15T12:03:17.019Z,2.20
2018-07-15T12:05:46.355Z,2.20
2018-07-15T12:08:16.111Z,2.50
2018-07-15T12:10:45.660Z,2.60
2018-07-15T12:13:14.988Z,2.50
2018-07-15T12:15:44.308Z,2.43
2018-07-15T12:18:13.648Z,2.30
2018-07-15T12:20:42.963Z,2.37
2018-07-15T12:23:12.740Z,2.10
2018-07-15T12:25:42.125Z,2.40
2018-07-15T12:28:11.890Z,2.20
2018-07-15T12:30:42.544Z,2.40
2018-07-15T12:33:12.589Z,2.65
2018-07-15T12:35:41.900Z,2.08
2018-07-15T12:38:11.604Z,1.97
2018-07-15T12:40:41.144Z,1.83
2018-07-15T12:43:10.790Z,2.00
2018-07-15T12:45:41.081Z,2.00
2018-07-15T12:48:11.429Z,1.80
2018-07-15T12:50:40.984Z,2.03
2018-07-15T12:53:10.364Z,1.60
2018-07-15T12:55:39.811Z,2.00
2018-07-15T12:58:09.188Z,1.85
2018-07-15T13:00:39.080Z,1.90
2018-07-15T13:03:08.509Z,1.80
2018-07-15T13:05:37.848Z,1.72
2018-07-15T13:08:09.128Z,2.00
2018-07-15T13:10:39.882Z,2.10
2018-07-15T13:13:09.199Z,1.80
2018-07-15T13:15:38.550Z,1.98
2018-07-15T13:18:08.267Z,2.05
2018-07-15T13:20:38.399Z,2.12
2018-07-15T13:23:08.048Z,2.20
2018-07-15T13:25:37.744Z,2.10
2018-07-15T13:28:07.097Z,2.02
2018-07-15T13:30:36.663Z,2.17
2018-07-15T13:33:07.241Z,2.00
2018-07-15T13:35:36.560Z,2.10
2018-07-15T13:38:05.951Z,2.20
2018-07-15T13:40:35.316Z,1.77
2018-07-15T13:43:06.551Z,2.12
2018-07-15T13:45:37.135Z,2.10
2018-07-15T13:48:06.716Z,2.05
2018-07-15T13:50:36.056Z,2.30
2018-07-15T13:53:05.650Z,2.12
2018-07-15T13:55:34.983Z,1.90
2018-07-15T13:58:04.807Z,1.90
2018-07-15T14:00:34.129Z,2.00
2018-07-15T14:03:03.866Z,2.10
2018-07-15T14:05:33.399Z,2.00
2018-07-15T14:08:02.711Z,1.90
2018-07-15T14:10:32.385Z,1.80
2018-07-15T14:13:04.383Z,2.42
2018-07-15T14:15:33.944Z,1.85
2018-07-15T14:18:03.937Z,1.72
2018-07-15T14:20:33.565Z,1.85
2018-07-15T14:23:02.885Z,1.90
2018-07-15T14:25:33.055Z,1.87
2018-07-15T14:28:02.420Z,1.87
2018-07-15T14:30:31.699Z,1.90
2018-07-15T14:33:01.622Z,1.85
2018-07-15T14:35:32.445Z,1.90
2018-07-15T14:38:01.802Z,1.90
2018-07-15T14:40:31.120Z,1.90
2018-07-15T14:43:00.467Z,2.05
2018-07-15T14:45:30.246Z,2.00
2018-07-15T14:48:00.232Z,2.80
2018-07-15T14:50:30.353Z,2.00
2018-07-15T14:52:59.920Z,1.80
2018-07-15T14:55:30.107Z,1.87
2018-07-15T14:58:00.094Z,1.70
2018-07-15T15:00:29.423Z,2.25
2018-07-15T15:03:00.343Z,1.67
2018-07-15T15:05:30.916Z,1.70
2018-07-15T15:08:00.276Z,1.80
2018-07-15T15:10:30.201Z,1.80
2018-07-15T15:13:00.899Z,1.60
2018-07-15T15:15:30.239Z,1.80
2018-07-15T15:18:00.289Z,1.75
2018-07-15T15:20:29.641Z,1.60
2018-07-15T15:23:00.164Z,1.60
2018-07-15T15:25:29.732Z,1.40
2018-07-15T15:27:59.082Z,1.98
2018-07-15T15:30:28.975Z,1.50
2018-07-15T15:32:58.678Z,1.62
2018-07-15T15:35:28.059Z,1.72
2018-07-15T15:37:57.860Z,1.70
2018-07-15T15:40:28.468Z,1.70
2018-07-15T15:42:58.120Z,1.45
2018-07-15T15:45:27.484Z,1.62
2018-07-15T15:47:57.114Z,1.80
2018-07-15T15:50:26.484Z,1.65
2018-07-15T15:52:55.805Z,1.75
2018-07-15T15:55:25.627Z,1.70
2018-07-15T15:57:56.830Z,1.50
2018-07-15T16:00:27.767Z,1.82
2018-07-15T16:02:57.082Z,1.60
2018-07-15T16:05:27.025Z,1.60
2018-07-15T16:07:57.044Z,1.57
2018-07-15T16:10:26.429Z,1.72
2018-07-15T16:12:55.713Z,1.50
2018-07-15T16:15:25.032Z,1.70
2018-07-15T16:17:54.346Z,1.75
2018-07-15T16:20:23.884Z,1.45
2018-07-15T16:22:53.548Z,1.70
2018-07-15T16:25:22.921Z,1.50
2018-07-15T16:27:53.448Z,1.55
2018-07-15T16:30:23.170Z,1.60
2018-07-15T16:32:53.370Z,1.40
2018-07-15T16:35:23.929Z,1.80
2018-07-15T16:37:53.613Z,1.45
2018-07-15T16:40:23.412Z,1.60
2018-07-15T16:42:52.748Z,1.50
2018-07-15T16:45:22.549Z,1.60
2018-07-15T16:47:52.166Z,1.60
2018-07-15T16:50:21.739Z,1.60
2018-07-15T16:52:51.380Z,1.65
2018-07-15T16:55:21.070Z,1.50
2018-07-15T16:57:50.354Z,1.70
2018-07-15T17:00:21.270Z,1.50
2018-07-15T17:02:50.604Z,1.50
2018-07-15T17:05:20.826Z,1.37
2018-07-15T17:07:51.251Z,1.60
2018-07-15T17:10:20.975Z,1.50
2018-07-15T17:12:50.511Z,1.42
2018-07-15T17:15:20.425Z,1.20
2018-07-15T17:17:50.190Z,1.60
2018-07-15T17:20:21.166Z,1.62
2018-07-15T17:22:50.460Z,1.42
2018-07-15T17:25:19.825Z,1.50
2018-07-15T17:27:49.129Z,1.40
2018-07-15T17:30:18.481Z,1.37
2018-07-15T17:32:48.258Z,1.37
2018-07-15T17:35:18.972Z,1.45
2018-07-15T17:37:48.531Z,1.40
2018-07-15T17:40:18.215Z,1.50
2018-07-15T17:42:48.056Z,1.40
2018-07-15T17:45:17.422Z,1.30
2018-07-15T17:47:46.924Z,1.32
2018-07-15T17:50:16.297Z,1.30
2018-07-15T17:52:46.004Z,1.25
2018-07-15T17:55:15.790Z,1.10
2018-07-15T17:57:45.348Z,1.60
2018-07-15T18:00:14.922Z,1.35
2018-07-15T18:02:44.461Z,1.25
2018-07-15T18:05:14.821Z,1.60
2018-07-15T18:07:44.149Z,1.30
2018-07-15T18:10:14.593Z,1.10
2018-07-15T18:12:43.927Z,1.25
2018-07-15T18:15:13.276Z,1.37
2018-07-15T18:17:42.586Z,1.50
2018-07-15T18:20:12.314Z,1.30
2018-07-15T18:22:41.689Z,1.27
2018-07-15T18:25:11.030Z,1.40
2018-07-15T18:27:40.333Z,1.10
2018-07-15T18:30:10.790Z,1.40
2018-07-15T18:32:40.106Z,1.10
2018-07-15T18:35:09.679Z,1.35
2018-07-15T18:37:39.316Z,1.32
2018-07-15T18:40:08.727Z,1.20
2018-07-15T18:42:39.676Z,1.10
2018-07-15T18:45:09.025Z,1.30
2018-07-15T18:47:38.465Z,1.67
2018-07-15T18:50:08.277Z,1.40
2018-07-15T18:52:38.596Z,1.43
2018-07-15T18:55:07.947Z,1.50
2018-07-15T18:57:37.274Z,1.60
2018-07-15T19:00:07.045Z,2.00
2018-07-15T19:02:36.688Z,1.27
2018-07-15T19:05:06.508Z,1.37
2018-07-15T19:07:36.149Z,1.82
2018-07-15T19:10:06.575Z,1.50
2018-07-15T19:12:37.634Z,2.27
2018-07-15T19:15:07.106Z,1.30
2018-07-15T19:17:36.779Z,1.60
2018-07-15T19:20:06.145Z,1.40
2018-07-15T19:22:35.476Z,1.20
2018-07-15T19:25:06.220Z,1.47
2018-07-15T19:27:35.516Z,1.87
2018-07-15T19:30:05.443Z,2.80
2018-07-15T19:32:35.937Z,3.17
2018-07-15T19:35:05.721Z,3.10
2018-07-15T19:37:35.056Z,2.97
2018-07-15T19:40:04.761Z,2.73
2018-07-15T19:42:34.744Z,3.30
2018-07-15T19:45:04.078Z,3.07
2018-07-15T19:47:34.933Z,3.30
2018-07-15T19:50:04.680Z,3.97
2018-07-15T19:52:34.097Z,3.80
2018-07-15T19:55:03.841Z,4.00
2018-07-15T19:57:33.752Z,4.03
2018-07-15T20:00:03.891Z,3.70
2018-07-15T20:02:33.732Z,4.50
2018-07-15T20:05:03.040Z,4.40
2018-07-15T20:07:33.535Z,4.70
2018-07-15T20:10:03.103Z,4.60
2018-07-15T20:12:32.773Z,4.47
2018-07-15T20:15:02.113Z,4.17
2018-07-15T20:17:31.420Z,4.50
2018-07-15T20:20:01.000Z,4.30
2018-07-15T20:22:30.655Z,4.33
2018-07-15T20:25:00.283Z,4.57
2018-07-15T20:27:30.036Z,4.77
2018-07-15T20:29:59.926Z,4.10
2018-07-15T20:32:29.259Z,5.00
2018-07-15T20:34:58.618Z,4.80
2018-07-15T20:37:29.680Z,5.07
2018-07-15T20:39:59.228Z,5.20
2018-07-15T20:42:28.893Z,4.90
2018-07-15T20:44:58.715Z,5.00
2018-07-15T20:47:28.828Z,5.47
2018-07-15T20:49:58.464Z,4.70
2018-07-15T20:52:28.289Z,4.90
2018-07-15T20:54:57.643Z,5.47
2018-07-15T20:57:28.298Z,5.03
2018-07-15T20:59:57.948Z,4.97
2018-07-15T21:02:27.272Z,5.47
2018-07-15T21:04:56.973Z,5.17
2018-07-15T21:07:26.300Z,5.60
2018-07-15T21:09:55.644Z,5.73
2018-07-15T21:12:25.291Z,5.10
2018-07-15T21:14:54.967Z,5.50
2018-07-15T21:17:24.650Z,5.33
2018-07-15T21:19:54.068Z,5.20
2018-07-15T21:22:23.502Z,5.53
2018-07-15T21:24:53.115Z,5.73
2018-07-15T21:27:22.581Z,5.23
2018-07-15T21:29:52.241Z,5.20
2018-07-15T21:32:22.307Z,5.43
2018-07-15T21:34:51.716Z,5.90
2018-07-15T21:37:22.149Z,5.90
2018-07-15T21:39:52.395Z,5.43
2018-07-15T21:42:21.737Z,5.70
2018-07-15T21:44:52.052Z,5.93
2018-07-15T21:47:21.688Z,5.93
2018-07-15T21:49:51.348Z,5.43
2018-07-15T21:52:20.724Z,5.10
2018-07-15T21:54:50.609Z,5.70
2018-07-15T21:57:20.263Z,5.80
2018-07-15T21:59:49.592Z,5.73
2018-07-15T22:02:19.024Z,5.37
2018-07-15T22:04:48.575Z,5.90
2018-07-15T22:07:29.093Z,5.70
2018-07-15T22:10:13.208Z,6.73
2018-07-15T22:12:42.574Z,6.17
2018-07-15T22:15:13.073Z,6.57
2018-07-15T22:17:44.834Z,6.20
2018-07-15T22:20:14.497Z,6.30
2018-07-15T22:22:44.946Z,6.63
2018-07-15T22:25:14.857Z,6.33
2018-07-15T22:27:44.890Z,6.80
2018-07-15T22:30:14.288Z,6.90
2018-07-15T22:32:43.663Z,6.93
2018-07-15T22:35:13.027Z,7.33
2018-07-15T22:37:42.811Z,6.57
2018-07-15T22:40:12.104Z,6.47
2018-07-15T22:42:41.875Z,6.80
2018-07-15T22:45:11.544Z,6.83
2018-07-15T22:47:41.137Z,6.50
2018-07-15T22:50:11.449Z,6.57
2018-07-15T22:52:40.803Z,6.50
2018-07-15T22:55:10.132Z,6.80
2018-07-15T22:57:39.614Z,6.53
2018-07-15T23:00:09.441Z,6.80
2018-07-15T23:02:38.766Z,6.20
2018-07-15T23:05:59.941Z,6.23
2018-07-15T23:08:30.847Z,5.87
2018-07-15T23:11:00.177Z,5.50
2018-07-15T23:13:29.857Z,4.73
2018-07-15T23:15:59.178Z,4.40
2018-07-15T23:18:28.512Z,5.00
2018-07-15T23:20:58.261Z,4.17
2018-07-15T23:23:27.579Z,4.10
2018-07-15T23:25:56.893Z,4.57
2018-07-15T23:28:26.492Z,3.87
2018-07-15T23:30:56.395Z,3.13
2018-07-15T23:33:26.001Z,3.00
2018-07-15T23:35:55.645Z,2.83
2018-07-15T23:38:24.964Z,2.67
2018-07-15T23:40:54.697Z,2.73
2018-07-15T23:43:24.295Z,2.40
2018-07-15T23:45:54.292Z,2.30
2018-07-15T23:48:24.353Z,2.40
2018-07-15T23:50:53.640Z,2.17
2018-07-15T23:53:22.981Z,1.60
2018-07-15T23:55:52.652Z,1.50
2018-07-15T23:58:22.404Z,2.00
